Time;durP1;ratioP1;P1;durP2;ratioP2;P2;SDS_P1;SDS_P2;PMS_P1;PMS_P2;Temp;Humidity;BMP_temperature;BMP_pressure;BME280_temperature;BME280_humidity;BME280_pressure;Samples;Min_cycle;Max_cycle;Signal;HPM_P1;HPM_P2
2023/06/29 00:00:39;;;;;;;27.85;21.17;;;19.20;99.90;;;;;;5036627;28;20057;-72
2023/06/29 00:03:06;;;;;;;29.10;19.88;;;19.40;99.90;;;;;;5054048;28;20045;-72
2023/06/29 00:05:31;;;;;;;20.95;16.50;;;19.20;99.90;;;;;;5036646;28;20094;-71
2023/06/29 00:08:00;;;;;;;26.60;18.92;;;19.20;99.90;;;;;;5054310;28;20045;-71
2023/06/29 00:10:26;;;;;;;29.08;19.40;;;19.20;99.90;;;;;;5054220;28;20048;-71
2023/06/29 00:12:53;;;;;;;30.70;21.45;;;19.20;99.90;;;;;;5053935;28;20040;-72
2023/06/29 00:15:19;;;;;;;25.67;19.10;;;19.20;99.90;;;;;;5053426;28;20041;-72
2023/06/29 00:17:47;;;;;;;29.63;20.02;;;19.20;99.90;;;;;;5054233;28;20045;-71
2023/06/29 00:20:13;;;;;;;22.70;17.20;;;19.20;99.90;;;;;;5053972;28;20041;-71
2023/06/29 00:22:40;;;;;;;29.73;20.67;;;19.20;99.90;;;;;;5053238;28;20053;-71
2023/06/29 00:25:08;;;;;;;29.38;22.90;;;19.20;99.90;;;;;;5053385;28;20048;-72
2023/06/29 00:27:34;;;;;;;25.83;16.83;;;19.20;99.90;;;;;;5053743;28;20079;-72
2023/06/29 00:30:00;;;;;;;31.77;22.55;;;19.20;99.90;;;;;;5052669;28;20132;-72
2023/06/29 00:32:26;;;;;;;32.83;22.95;;;19.10;99.90;;;;;;5053660;28;20047;-72
2023/06/29 00:34:51;;;;;;;30.13;23.65;;;19.10;99.90;;;;;;5054087;28;20053;-72
2023/06/29 00:37:17;;;;;;;23.75;18.80;;;19.10;99.90;;;;;;5053902;28;20057;-72
2023/06/29 00:39:43;;;;;;;27.25;19.33;;;19.10;99.90;;;;;;5053629;28;20053;-72
2023/06/29 00:42:08;;;;;;;29.73;22.50;;;19.10;99.90;;;;;;5052453;28;20053;-72
2023/06/29 00:44:34;;;;;;;21.90;17.92;;;19.10;99.90;;;;;;5054089;28;20497;-72
2023/06/29 00:47:00;;;;;;;30.48;22.50;;;19.10;99.90;;;;;;5052433;28;20063;-72
2023/06/29 00:49:26;;;;;;;25.83;20.40;;;19.10;99.90;;;;;;5053606;28;20051;-72
2023/06/29 00:51:54;;;;;;;25.58;18.10;;;19.10;99.90;;;;;;5053654;28;20377;-72
2023/06/29 00:54:21;;;;;;;23.55;16.45;;;19.10;99.90;;;;;;5053010;28;20545;-72
2023/06/29 00:56:47;;;;;;;23.73;18.20;;;19.10;99.90;;;;;;5053212;28;20098;-72
2023/06/29 00:59:13;;;;;;;28.83;21.17;;;19.10;99.90;;;;;;5052729;28;20049;-72
2023/06/29 01:01:40;;;;;;;22.92;16.90;;;19.20;99.90;;;;;;5053385;28;20047;-72
2023/06/29 01:04:09;;;;;;;29.20;21.20;;;19.20;99.90;;;;;;5053304;28;20124;-72
2023/06/29 01:06:56;;;;;;;26.63;20.25;;;19.10;99.90;;;;;;5053469;28;20128;-72
2023/06/29 01:09:23;;;;;;;23.33;18.20;;;19.10;99.90;;;;;;5053162;28;20053;-72
2023/06/29 01:11:50;;;;;;;21.88;18.25;;;19.10;99.90;;;;;;5052851;28;20040;-72
2023/06/29 01:14:17;;;;;;;29.83;20.92;;;19.00;99.90;;;;;;5052760;28;20049;-72
2023/06/29 01:16:43;;;;;;;25.80;20.23;;;19.10;99.90;;;;;;5052706;28;20048;-72
2023/06/29 01:19:13;;;;;;;21.70;15.27;;;19.10;99.90;;;;;;5052769;28;20048;-72
2023/06/29 01:21:54;;;;;;;31.48;21.50;;;19.10;99.90;;;;;;5051755;28;20056;-72
2023/06/29 01:24:24;;;;;;;23.02;17.40;;;19.10;99.90;;;;;;5052949;28;20045;-72
2023/06/29 01:26:50;;;;;;;28.10;21.00;;;19.10;99.90;;;;;;5034359;28;20041;-72
2023/06/29 01:29:24;;;;;;;31.25;22.02;;;19.00;99.90;;;;;;5034706;28;20047;-72
2023/06/29 01:31:59;;;;;;;26.65;19.50;;;19.10;99.90;;;;;;5052430;28;20476;-72
2023/06/29 01:34:28;;;;;;;25.45;19.50;;;19.10;99.90;;;;;;5052620;28;20056;-72
2023/06/29 01:37:01;;;;;;;29.27;20.35;;;19.00;99.90;;;;;;5052232;28;20102;-72
2023/06/29 01:39:31;;;;;;;29.92;23.90;;;19.10;99.90;;;;;;5052561;28;20075;-72
2023/06/29 01:41:59;;;;;;;33.03;23.73;;;19.00;99.90;;;;;;5052927;28;20103;-72
2023/06/29 01:44:25;;;;;;;25.77;19.25;;;19.10;99.90;;;;;;5052255;28;20092;-70
2023/06/29 01:46:52;;;;;;;30.48;22.95;;;19.00;99.90;;;;;;5052458;28;20469;-70
2023/06/29 01:49:18;;;;;;;32.40;23.58;;;19.00;99.90;;;;;;5052079;28;20056;-70
2023/06/29 01:51:44;;;;;;;28.27;21.77;;;19.00;99.90;;;;;;5052544;28;20048;-70
2023/06/29 01:54:09;;;;;;;30.45;22.55;;;19.00;99.90;;;;;;5052092;28;20052;-71
2023/06/29 01:56:35;;;;;;;32.67;24.33;;;19.00;99.90;;;;;;5052055;28;20041;-70
2023/06/29 01:59:01;;;;;;;29.02;23.35;;;19.00;99.90;;;;;;5052255;28;20158;-71
2023/06/29 02:01:29;;;;;;;29.20;23.70;;;19.00;99.90;;;;;;5052161;28;20052;-70
2023/06/29 02:03:54;;;;;;;32.30;23.33;;;19.00;99.90;;;;;;5052129;28;20052;-70
2023/06/29 02:06:20;;;;;;;31.63;24.05;;;19.00;99.90;;;;;;5052105;28;20537;-70
2023/06/29 02:08:45;;;;;;;30.38;22.60;;;19.00;99.90;;;;;;5051881;28;20041;-71
2023/06/29 02:11:11;;;;;;;33.38;23.70;;;18.90;99.90;;;;;;5050763;28;20041;-71
2023/06/29 02:13:37;;;;;;;28.67;21.48;;;19.00;99.90;;;;;;5034235;28;20131;-70
2023/06/29 02:16:03;;;;;;;34.70;23.42;;;18.90;99.90;;;;;;5052086;28;20077;-70
2023/06/29 02:18:28;;;;;;;34.58;24.35;;;18.90;99.90;;;;;;5050531;28;20445;-70
2023/06/29 02:20:54;;;;;;;31.88;21.92;;;18.90;99.90;;;;;;5052043;28;20098;-70
2023/06/29 02:23:20;;;;;;;33.72;23.63;;;19.00;99.90;;;;;;5052144;28;20068;-70
2023/06/29 02:25:46;;;;;;;29.45;21.85;;;18.90;99.90;;;;;;5052136;28;20041;-70
2023/06/29 02:28:11;;;;;;;30.67;23.98;;;18.90;99.90;;;;;;5051939;28;20045;-71
2023/06/29 02:30:37;;;;;;;33.25;23.13;;;18.90;99.90;;;;;;5051925;28;20049;-70
2023/06/29 02:33:03;;;;;;;34.58;24.63;;;18.90;99.90;;;;;;5051734;28;20112;-71
2023/06/29 02:35:28;;;;;;;29.98;20.38;;;18.90;99.90;;;;;;5051364;28;20465;-70
2023/06/29 02:37:54;;;;;;;38.22;24.35;;;18.90;99.90;;;;;;5050218;28;20068;-70
2023/06/29 02:40:20;;;;;;;37.10;24.50;;;18.90;99.90;;;;;;5050576;28;20049;-70
2023/06/29 02:42:45;;;;;;;29.98;21.45;;;18.90;99.90;;;;;;5051654;28;20044;-70
2023/06/29 02:45:11;;;;;;;31.60;22.05;;;18.90;99.90;;;;;;5052960;28;20056;-70
2023/06/29 02:47:37;;;;;;;30.98;24.48;;;18.90;99.90;;;;;;5055530;28;20056;-73
2023/06/29 02:50:02;;;;;;;29.35;20.63;;;18.90;99.90;;;;;;5055978;28;20056;-70
2023/06/29 02:52:28;;;;;;;29.23;19.67;;;18.90;99.90;;;;;;5055489;28;20056;-70
2023/06/29 02:54:54;;;;;;;34.30;23.30;;;18.80;99.90;;;;;;5055777;28;20503;-72
2023/06/29 02:57:19;;;;;;;32.85;23.60;;;18.90;99.90;;;;;;5054084;28;20102;-71
2023/06/29 02:59:45;;;;;;;27.73;22.33;;;18.80;99.90;;;;;;5054122;28;20051;-72
2023/06/29 03:02:11;;;;;;;31.40;20.50;;;18.80;99.90;;;;;;5055433;28;20048;-70
2023/06/29 03:04:36;;;;;;;28.20;21.75;;;18.80;99.90;;;;;;5055272;28;20041;-70
2023/06/29 03:07:02;;;;;;;31.20;25.95;;;18.80;99.90;;;;;;5055033;28;20466;-71
2023/06/29 03:09:27;;;;;;;32.30;24.00;;;18.80;99.90;;;;;;5055517;28;20106;-71
2023/06/29 03:11:54;;;;;;;36.45;23.63;;;18.80;99.90;;;;;;5055544;28;20549;-70
2023/06/29 03:14:21;;;;;;;34.20;26.27;;;18.80;99.90;;;;;;5055262;28;20053;-71
2023/06/29 03:16:47;;;;;;;30.52;22.95;;;18.80;99.90;;;;;;5054241;28;20462;-70
2023/06/29 03:19:13;;;;;;;34.42;24.25;;;18.80;99.90;;;;;;5054010;28;20041;-70
2023/06/29 03:21:38;;;;;;;31.73;24.10;;;18.80;99.90;;;;;;5054695;28;20122;-71
2023/06/29 03:24:04;;;;;;;32.08;23.58;;;18.80;99.90;;;;;;5055235;28;20052;-71
2023/06/29 03:26:30;;;;;;;28.67;20.08;;;18.80;99.90;;;;;;5054932;28;20629;-71
2023/06/29 03:28:55;;;;;;;28.83;22.77;;;18.80;99.90;;;;;;5055041;28;20048;-71
2023/06/29 03:31:21;;;;;;;34.05;23.90;;;18.80;99.90;;;;;;5053694;28;20048;-71
2023/06/29 03:33:47;;;;;;;28.63;22.23;;;18.80;99.90;;;;;;5054879;28;20051;-71
2023/06/29 03:36:12;;;;;;;25.33;18.50;;;18.80;99.90;;;;;;5054332;28;20048;-71
2023/06/29 03:38:38;;;;;;;26.33;20.40;;;18.80;99.90;;;;;;5054936;28;20128;-72
2023/06/29 03:41:04;;;;;;;28.77;21.27;;;18.80;99.90;;;;;;5055039;28;20049;-71
2023/06/29 03:43:30;;;;;;;30.58;23.17;;;18.80;99.90;;;;;;5055053;28;20045;-70
2023/06/29 03:45:58;;;;;;;30.17;21.83;;;18.80;99.90;;;;;;5054776;28;20082;-71
2023/06/29 03:48:27;;;;;;;26.83;20.80;;;18.90;99.90;;;;;;5054474;28;20424;-71
2023/06/29 03:50:54;;;;;;;29.33;20.85;;;18.90;99.90;;;;;;5054089;28;20060;-71
2023/06/29 03:53:20;;;;;;;26.75;19.77;;;18.90;99.90;;;;;;5054024;28;20102;-71
2023/06/29 03:55:46;;;;;;;28.48;20.98;;;18.90;99.90;;;;;;5054370;28;20094;-71
2023/06/29 03:58:11;;;;;;;29.70;21.02;;;19.00;99.90;;;;;;5054727;28;20048;-71
2023/06/29 04:00:37;;;;;;;31.98;25.10;;;19.00;99.90;;;;;;5054421;28;20057;-71
2023/06/29 04:03:02;;;;;;;28.23;22.27;;;19.00;99.90;;;;;;5053479;28;20056;-71
2023/06/29 04:05:28;;;;;;;28.02;20.85;;;19.00;99.90;;;;;;5054065;28;20041;-71
2023/06/29 04:07:54;;;;;;;29.83;23.23;;;19.10;99.90;;;;;;5054931;28;20056;-71
2023/06/29 04:10:20;;;;;;;26.67;22.05;;;19.10;99.90;;;;;;5054506;28;20459;-71
2023/06/29 04:12:45;;;;;;;28.52;22.02;;;19.10;99.90;;;;;;5054198;28;20045;-71
2023/06/29 04:15:11;;;;;;;32.60;22.42;;;19.10;99.90;;;;;;5053565;28;20049;-71
2023/06/29 04:17:36;;;;;;;33.20;23.73;;;19.10;99.90;;;;;;5054498;28;20125;-71
2023/06/29 04:20:03;;;;;;;32.72;23.58;;;19.10;99.90;;;;;;5054075;28;20052;-71
2023/06/29 04:22:29;;;;;;;32.15;23.58;;;19.10;99.90;;;;;;5054313;28;20473;-71
2023/06/29 04:24:55;;;;;;;30.45;22.65;;;19.20;99.90;;;;;;5054272;28;20064;-72
2023/06/29 04:27:20;;;;;;;31.67;22.08;;;19.20;99.90;;;;;;5053073;28;20462;-71
2023/06/29 04:29:46;;;;;;;29.60;21.38;;;19.20;99.90;;;;;;5053783;28;20094;-71
2023/06/29 04:32:12;;;;;;;34.63;22.83;;;19.20;99.90;;;;;;5053787;28;20044;-71
2023/06/29 04:34:37;;;;;;;33.25;22.13;;;19.20;99.90;;;;;;5054109;28;20053;-71
2023/06/29 04:37:04;;;;;;;30.83;22.48;;;19.30;99.90;;;;;;5053684;28;20049;-71
2023/06/29 04:39:30;;;;;;;25.67;20.10;;;19.30;99.90;;;;;;5053368;28;20511;-71
2023/06/29 04:42:01;;;;;;;30.20;22.08;;;19.10;99.90;;;;;;5053324;28;20041;-70
2023/06/29 04:44:31;;;;;;;21.80;16.13;;;19.30;99.90;;;;;;5054768;28;20055;-71
2023/06/29 04:47:03;;;;;;;29.80;21.95;;;19.40;99.90;;;;;;5052805;28;20084;-72
2023/06/29 04:49:36;;;;;;;28.20;20.75;;;19.50;99.90;;;;;;5053392;28;20044;-71
2023/06/29 04:52:03;;;;;;;30.77;21.70;;;19.40;99.90;;;;;;5053035;28;20077;-71
2023/06/29 04:54:29;;;;;;;35.88;22.45;;;19.50;99.90;;;;;;5053152;28;20470;-71
2023/06/29 04:56:56;;;;;;;26.58;19.17;;;19.60;99.90;;;;;;5052789;28;20059;-70
2023/06/29 04:59:23;;;;;;;27.85;19.95;;;19.70;99.90;;;;;;5052893;28;20057;-71
2023/06/29 05:01:49;;;;;;;26.55;20.15;;;19.80;99.90;;;;;;5053680;28;20053;-71
2023/06/29 05:04:16;;;;;;;22.15;16.90;;;19.80;99.90;;;;;;5053046;28;20098;-71
2023/06/29 05:06:41;;;;;;;30.15;21.67;;;19.90;99.90;;;;;;5035532;28;20045;-72
2023/06/29 05:09:07;;;;;;;27.85;20.08;;;20.00;99.90;;;;;;5052730;28;20052;-71
2023/06/29 05:11:34;;;;;;;29.40;20.13;;;20.10;99.90;;;;;;5053139;28;20045;-71
2023/06/29 05:14:00;;;;;;;28.83;20.15;;;20.20;99.90;;;;;;5052102;28;20128;-71
2023/06/29 05:16:26;;;;;;;24.95;17.95;;;20.20;99.90;;;;;;5053098;28;20049;-71
2023/06/29 05:18:52;;;;;;;23.55;19.73;;;20.30;99.90;;;;;;5053051;28;20491;-69
2023/06/29 05:21:17;;;;;;;28.08;20.10;;;20.30;99.90;;;;;;5052994;28;20132;-71
2023/06/29 05:23:43;;;;;;;25.00;18.25;;;20.30;99.90;;;;;;5053143;28;20088;-71
2023/06/29 05:26:09;;;;;;;24.70;19.27;;;20.40;99.90;;;;;;5053285;28;20137;-71
2023/06/29 05:28:35;;;;;;;29.20;19.90;;;20.50;99.90;;;;;;5052785;28;20476;-71
2023/06/29 05:31:00;;;;;;;27.17;18.48;;;20.50;99.90;;;;;;5052046;28;20060;-71
2023/06/29 05:33:26;;;;;;;26.30;18.95;;;20.50;99.90;;;;;;5051822;28;20071;-71
2023/06/29 05:35:52;;;;;;;24.70;18.02;;;20.60;99.90;;;;;;5052299;28;20398;-70
2023/06/29 05:38:18;;;;;;;27.02;18.85;;;20.60;99.90;;;;;;5053352;28;20060;-71
2023/06/29 05:40:43;;;;;;;25.20;18.02;;;20.60;99.90;;;;;;5052663;28;20086;-73
2023/06/29 05:43:09;;;;;;;29.67;18.20;;;20.70;99.90;;;;;;5053031;28;20454;-71
2023/06/29 05:45:36;;;;;;;23.52;17.40;;;20.70;99.90;;;;;;5051850;28;20345;-73
2023/06/29 05:48:02;;;;;;;27.02;19.13;;;20.70;99.90;;;;;;5052074;28;20552;-73
2023/06/29 05:50:28;;;;;;;22.45;15.23;;;20.80;99.90;;;;;;5051649;28;20049;-74
2023/06/29 05:52:54;;;;;;;29.30;17.80;;;20.90;99.90;;;;;;5052479;28;20132;-74
2023/06/29 05:55:20;;;;;;;23.60;16.98;;;21.00;99.90;;;;;;5052674;28;20546;-73
2023/06/29 05:57:45;;;;;;;28.48;19.17;;;21.00;99.90;;;;;;5052316;28;20551;-73
2023/06/29 06:00:12;;;;;;;25.27;18.38;;;21.10;99.90;;;;;;5052832;28;20056;-73
2023/06/29 06:02:41;;;;;;;26.30;19.00;;;21.20;99.90;;;;;;5051465;28;20053;-73
2023/06/29 06:05:07;;;;;;;26.02;17.67;;;21.30;99.90;;;;;;5052601;28;20041;-73
2023/06/29 06:07:34;;;;;;;22.58;17.63;;;21.40;99.90;;;;;;5051914;28;20127;-72
2023/06/29 06:10:00;;;;;;;23.90;18.55;;;21.50;99.90;;;;;;5052606;28;20049;-73
2023/06/29 06:12:26;;;;;;;24.70;17.48;;;21.50;99.90;;;;;;5052263;28;20099;-73
2023/06/29 06:14:52;;;;;;;23.33;17.05;;;21.60;99.90;;;;;;5052098;28;20060;-73
2023/06/29 06:17:18;;;;;;;24.10;18.73;;;21.70;99.90;;;;;;5052248;28;20052;-72
2023/06/29 06:19:44;;;;;;;24.85;17.42;;;21.70;99.90;;;;;;5053654;28;20151;-73
2023/06/29 06:22:09;;;;;;;21.90;16.67;;;21.70;99.90;;;;;;5055769;28;20102;-73
2023/06/29 06:24:35;;;;;;;25.90;19.00;;;21.80;99.90;;;;;;5055235;28;20052;-71
2023/06/29 06:27:01;;;;;;;25.33;17.50;;;21.90;99.90;;;;;;5055744;28;20488;-72
2023/06/29 06:29:27;;;;;;;24.83;18.08;;;22.00;99.90;;;;;;5056037;28;20045;-74
2023/06/29 06:31:53;;;;;;;26.67;19.52;;;22.10;99.90;;;;;;5038817;28;20045;-72
2023/06/29 06:34:19;;;;;;;24.35;19.17;;;22.20;99.90;;;;;;5056327;28;20132;-73
2023/06/29 06:36:47;;;;;;;27.10;18.92;;;22.20;99.90;;;;;;5055858;28;20088;-71
2023/06/29 06:39:17;;;;;;;25.92;17.77;;;22.20;99.90;;;;;;5054481;28;20485;-72
2023/06/29 06:41:44;;;;;;;21.55;16.40;;;22.20;99.90;;;;;;5056102;28;20048;-71
2023/06/29 06:44:09;;;;;;;24.60;17.42;;;22.10;99.90;;;;;;5055418;28;20107;-69
2023/06/29 06:46:35;;;;;;;27.75;17.25;;;22.10;99.90;;;;;;5055609;28;20374;-71
2023/06/29 06:49:01;;;;;;;22.33;17.27;;;21.90;99.90;;;;;;5054796;28;20132;-71
2023/06/29 06:51:27;;;;;;;28.73;18.98;;;22.00;99.90;;;;;;5056097;28;20499;-70
2023/06/29 06:53:54;;;;;;;31.00;18.17;;;21.90;99.90;;;;;;5054768;28;20048;-71
2023/06/29 06:56:22;;;;;;;25.65;18.73;;;21.90;99.90;;;;;;5055687;28;20053;-71
2023/06/29 06:58:48;;;;;;;22.00;16.73;;;21.80;99.90;;;;;;5055959;28;20114;-70
2023/06/29 07:01:15;;;;;;;29.13;19.25;;;21.80;99.90;;;;;;5055590;28;20120;-71
2023/06/29 07:03:40;;;;;;;30.30;19.17;;;21.80;99.90;;;;;;5038058;28;20045;-70
2023/06/29 07:06:06;;;;;;;25.17;17.90;;;21.70;99.90;;;;;;5054163;28;20051;-70
2023/06/29 07:08:33;;;;;;;26.25;18.08;;;21.70;99.90;;;;;;5055527;28;20053;-71
2023/06/29 07:10:59;;;;;;;27.50;18.38;;;21.70;99.90;;;;;;5055393;28;20537;-71
2023/06/29 07:13:24;;;;;;;29.65;19.73;;;21.70;99.90;;;;;;5055671;28;20079;-70
2023/06/29 07:15:50;;;;;;;28.55;18.60;;;21.70;99.90;;;;;;5037402;28;20487;-70
2023/06/29 07:18:16;;;;;;;24.02;18.27;;;21.70;99.90;;;;;;5055303;28;20059;-71
2023/06/29 07:20:42;;;;;;;22.98;17.58;;;21.70;99.90;;;;;;5055159;28;20045;-70
2023/06/29 07:23:08;;;;;;;25.88;20.25;;;21.70;99.90;;;;;;5055128;28;20128;-71
2023/06/29 07:25:34;;;;;;;24.42;18.10;;;21.70;99.90;;;;;;5055535;28;20076;-70
2023/06/29 07:27:59;;;;;;;29.73;18.42;;;21.70;99.90;;;;;;5055233;28;20478;-71
2023/06/29 07:30:25;;;;;;;21.98;15.75;;;21.70;99.90;;;;;;5053900;28;20543;-70
2023/06/29 07:32:52;;;;;;;23.52;16.08;;;21.70;99.90;;;;;;5054934;28;20056;-71
2023/06/29 07:35:18;;;;;;;22.42;16.58;;;21.70;99.90;;;;;;5037763;28;20142;-70
2023/06/29 07:37:43;;;;;;;36.55;19.00;;;21.70;99.90;;;;;;5055109;28;20113;-71
2023/06/29 07:40:09;;;;;;;23.48;17.27;;;21.70;99.90;;;;;;5054476;28;20056;-71
2023/06/29 07:42:35;;;;;;;25.60;18.27;;;21.60;99.90;;;;;;5054725;28;20102;-71
2023/06/29 07:45:01;;;;;;;24.95;17.58;;;21.60;99.90;;;;;;5053590;28;20045;-71
2023/06/29 07:47:26;;;;;;;25.60;17.65;;;21.60;99.90;;;;;;5055041;28;20076;-72
2023/06/29 07:49:52;;;;;;;22.48;17.73;;;21.60;99.90;;;;;;5054764;28;20449;-70
2023/06/29 07:52:18;;;;;;;19.50;14.65;;;21.60;99.90;;;;;;5054600;28;20049;-71
2023/06/29 07:54:43;;;;;;;21.33;15.93;;;21.60;99.90;;;;;;5054171;28;20116;-70
2023/06/29 07:57:10;;;;;;;24.80;17.42;;;21.70;99.90;;;;;;5054681;28;20075;-71
2023/06/29 07:59:36;;;;;;;23.77;18.33;;;21.70;99.90;;;;;;5054978;28;20041;-70
2023/06/29 08:02:02;;;;;;;28.52;18.67;;;21.70;99.90;;;;;;5053191;28;20124;-71
2023/06/29 08:04:27;;;;;;;24.77;17.35;;;21.70;99.90;;;;;;5053663;28;20045;-70
2023/06/29 08:06:53;;;;;;;23.20;16.50;;;21.80;99.90;;;;;;5054514;28;20461;-71
2023/06/29 08:09:19;;;;;;;24.23;17.90;;;21.80;99.90;;;;;;5054187;28;20052;-71
2023/06/29 08:11:45;;;;;;;27.63;18.40;;;21.90;99.90;;;;;;5054091;28;20075;-70
2023/06/29 08:14:10;;;;;;;25.38;17.90;;;21.90;99.90;;;;;;5054120;28;20461;-71
2023/06/29 08:16:36;;;;;;;23.42;17.65;;;21.90;99.90;;;;;;5052818;28;20045;-72
2023/06/29 08:19:02;;;;;;;21.83;16.80;;;21.90;99.90;;;;;;5053993;28;20455;-71
2023/06/29 08:21:27;;;;;;;23.83;16.85;;;21.90;99.90;;;;;;5053886;28;20049;-71
2023/06/29 08:23:53;;;;;;;27.88;17.48;;;22.00;99.90;;;;;;5053043;28;20044;-71
2023/06/29 08:26:20;;;;;;;23.15;17.52;;;22.10;99.90;;;;;;5053981;28;20419;-71
2023/06/29 08:28:46;;;;;;;26.20;16.77;;;22.20;99.90;;;;;;5053704;28;20045;-70
2023/06/29 08:31:12;;;;;;;23.25;17.92;;;22.20;99.90;;;;;;5053812;28;20130;-71
2023/06/29 08:33:38;;;;;;;23.92;18.25;;;22.30;99.90;;;;;;5052548;28;20045;-70
2023/06/29 08:36:04;;;;;;;24.77;17.23;;;22.30;99.90;;;;;;5053540;28;20059;-70
2023/06/29 08:38:31;;;;;;;21.75;16.60;;;22.40;99.90;;;;;;5053861;28;20128;-70
2023/06/29 08:40:58;;;;;;;22.23;16.50;;;22.50;99.90;;;;;;5053532;28;20049;-70
2023/06/29 08:43:24;;;;;;;28.05;18.23;;;22.70;99.90;;;;;;5051346;28;20137;-70
2023/06/29 08:45:50;;;;;;;24.83;17.08;;;22.80;99.90;;;;;;5036364;28;20124;-71
2023/06/29 08:48:18;;;;;;;26.05;19.02;;;22.90;99.90;;;;;;5053899;28;20052;-70
2023/06/29 08:50:58;;;;;;;23.63;16.58;;;23.10;99.90;;;;;;5053421;28;20158;-71
2023/06/29 08:53:25;;;;;;;20.58;16.85;;;23.10;99.90;;;;;;5052238;28;20049;-71
2023/06/29 08:55:51;;;;;;;25.67;17.17;;;23.20;99.90;;;;;;5052917;28;20056;-70
2023/06/29 08:58:20;;;;;;;28.45;20.48;;;23.30;99.90;;;;;;5053314;28;20056;-70
2023/06/29 09:00:47;;;;;;;28.38;20.27;;;23.40;99.90;;;;;;5019323;28;20083;-70
2023/06/29 09:03:14;;;;;;;26.80;19.85;;;23.30;99.90;;;;;;5053287;28;20127;-70
2023/06/29 09:05:39;;;;;;;27.50;18.90;;;23.40;99.90;;;;;;5053017;28;20063;-70
2023/06/29 09:08:06;;;;;;;27.52;19.00;;;23.60;99.90;;;;;;5052629;28;20549;-70
2023/06/29 09:10:32;;;;;;;28.73;20.63;;;23.80;99.90;;;;;;5053431;28;20049;-70
2023/06/29 09:12:57;;;;;;;28.13;21.65;;;23.70;99.90;;;;;;5053549;28;20055;-70
2023/06/29 09:15:25;;;;;;;34.67;21.42;;;23.60;99.90;;;;;;5051703;28;20582;-70
2023/06/29 09:17:55;;;;;;;32.03;22.38;;;23.50;99.90;;;;;;5053126;28;20041;-70
2023/06/29 09:20:21;;;;;;;28.40;21.73;;;23.50;99.90;;;;;;5052197;28;20057;-70
2023/06/29 09:22:51;;;;;;;30.90;21.58;;;23.50;99.90;;;;;;5052440;28;20052;-70
2023/06/29 09:25:17;;;;;;;29.75;21.40;;;23.40;99.90;;;;;;5052468;28;20378;-70
2023/06/29 09:27:43;;;;;;;28.70;21.02;;;23.40;99.90;;;;;;5053372;28;20044;-70
2023/06/29 09:30:17;;;;;;;29.67;20.95;;;23.50;99.90;;;;;;5052729;28;20505;-70
2023/06/29 09:32:43;;;;;;;30.95;21.80;;;23.60;99.90;;;;;;5053236;28;20075;-70
2023/06/29 09:35:09;;;;;;;36.42;23.48;;;23.70;99.90;;;;;;5035011;28;20056;-71
2023/06/29 09:37:35;;;;;;;29.88;22.30;;;23.70;99.90;;;;;;5051005;28;20053;-71
2023/06/29 09:40:09;;;;;;;30.40;19.75;;;23.60;99.90;;;;;;5052533;28;20064;-70
2023/06/29 09:42:39;;;;;;;28.92;20.23;;;23.60;99.90;;;;;;5052544;28;20049;-71
2023/06/29 09:45:11;;;;;;;27.55;19.33;;;23.70;99.90;;;;;;5052912;28;20048;-71
2023/06/29 09:47:40;;;;;;;30.38;22.95;;;23.70;99.90;;;;;;5051887;28;20160;-71
2023/06/29 09:50:20;;;;;;;26.65;20.48;;;23.60;99.90;;;;;;5052692;28;20045;-71
2023/06/29 09:52:51;;;;;;;25.30;19.27;;;23.50;99.90;;;;;;5052990;28;20087;-71
2023/06/29 09:55:17;;;;;;;29.35;21.13;;;23.40;99.90;;;;;;5052392;28;20048;-71
2023/06/29 09:57:49;;;;;;;28.77;19.98;;;23.30;99.90;;;;;;5052271;28;20128;-71
2023/06/29 10:00:16;;;;;;;28.80;20.85;;;23.40;99.90;;;;;;5051766;28;20394;-71
2023/06/29 10:02:42;;;;;;;28.20;18.83;;;23.30;99.90;;;;;;5051374;28;20106;-71
2023/06/29 10:05:11;;;;;;;28.63;19.05;;;23.40;99.90;;;;;;5052341;28;20036;-70
2023/06/29 10:07:41;;;;;;;27.20;20.02;;;23.40;99.90;;;;;;5050861;28;20123;-70
2023/06/29 10:10:11;;;;;;;33.80;21.33;;;23.30;99.90;;;;;;5052549;28;20041;-71
2023/06/29 10:12:36;;;;;;;28.40;20.98;;;23.20;99.90;;;;;;5052959;28;20049;-70
2023/06/29 10:15:08;;;;;;;31.60;22.17;;;23.10;99.90;;;;;;5050987;28;20052;-71
2023/06/29 10:17:52;;;;;;;32.92;23.63;;;23.00;99.90;;;;;;5052864;28;20092;-71
2023/06/29 10:20:20;;;;;;;32.53;20.95;;;22.90;99.90;;;;;;5052318;28;20049;-71
2023/06/29 10:22:47;;;;;;;31.02;21.77;;;22.80;99.90;;;;;;5052157;28;20048;-71
2023/06/29 10:25:17;;;;;;;30.23;21.67;;;22.80;99.90;;;;;;5051853;28;20063;-70
2023/06/29 10:27:45;;;;;;;34.38;23.02;;;22.70;99.90;;;;;;5052199;28;20053;-71
2023/06/29 10:30:11;;;;;;;29.50;21.75;;;22.60;99.90;;;;;;5052254;28;20132;-69
2023/06/29 10:32:40;;;;;;;33.08;24.30;;;22.50;99.90;;;;;;5034990;28;20429;-70
2023/06/29 10:35:13;;;;;;;31.90;22.58;;;22.50;99.90;;;;;;5052287;28;20057;-69
2023/06/29 10:37:43;;;;;;;;;;;22.50;99.90;;;;;;5052222;28;20082;-71
2023/06/29 10:40:12;;;;;;;31.55;23.00;;;22.40;99.90;;;;;;5050700;28;19970;-70
2023/06/29 10:42:38;;;;;;;30.45;23.60;;;22.30;99.90;;;;;;5051805;28;20128;-71
2023/06/29 10:45:16;;;;;;;31.25;22.13;;;22.30;99.90;;;;;;5050671;28;20080;-70
2023/06/29 10:47:42;;;;;;;28.45;20.05;;;22.30;99.90;;;;;;5051725;28;20057;-69
2023/06/29 10:50:11;;;;;;;32.00;21.02;;;22.20;99.90;;;;;;5034068;28;20370;-69
2023/06/29 10:52:43;;;;;;;27.13;19.38;;;22.20;99.90;;;;;;5051682;28;20477;-70
2023/06/29 10:55:15;;;;;;;26.13;19.38;;;22.30;99.90;;;;;;5051862;28;20048;-70
2023/06/29 10:57:46;;;;;;;24.92;19.38;;;22.30;99.90;;;;;;5052277;28;20040;-70
2023/06/29 11:00:13;;;;;;;25.02;19.23;;;22.30;99.90;;;;;;5051945;28;20049;-70
2023/06/29 11:02:40;;;;;;;24.73;17.42;;;22.30;99.90;;;;;;5051757;28;20517;-70
2023/06/29 11:05:06;;;;;;;21.80;18.00;;;22.30;99.90;;;;;;5051861;28;20116;-70
2023/06/29 11:07:33;;;;;;;25.15;18.35;;;22.50;99.90;;;;;;5055287;28;20094;-71
2023/06/29 11:10:03;;;;;;;31.83;18.92;;;22.60;99.90;;;;;;5037890;28;20056;-70
2023/06/29 11:12:29;;;;;;;25.15;18.75;;;22.80;99.90;;;;;;5055307;28;20052;-70
2023/06/29 11:14:55;;;;;;;22.98;16.80;;;23.00;99.90;;;;;;5055742;28;20044;-70
2023/06/29 11:17:22;;;;;;;26.77;20.05;;;23.40;99.90;;;;;;5055273;28;20124;-70
2023/06/29 11:19:49;;;;;;;26.83;18.15;;;23.90;99.90;;;;;;5054083;28;20124;-70
2023/06/29 11:22:19;;;;;;;27.63;20.00;;;24.30;99.90;;;;;;5053620;28;20049;-70
2023/06/29 11:24:45;;;;;;;28.90;19.40;;;24.20;99.90;;;;;;5055634;28;20045;-71
2023/06/29 11:27:11;;;;;;;32.35;19.88;;;24.30;99.90;;;;;;5055057;28;20470;-71
2023/06/29 11:29:38;;;;;;;29.95;21.30;;;24.30;99.90;;;;;;5055093;28;20049;-71
2023/06/29 11:32:15;;;;;;;29.92;19.48;;;24.30;99.90;;;;;;5054939;28;20127;-71
2023/06/29 11:34:41;;;;;;;27.77;20.48;;;24.40;99.90;;;;;;5055537;28;20041;-70
2023/06/29 11:37:09;;;;;;;27.42;19.92;;;24.40;99.90;;;;;;5055162;28;20450;-70
2023/06/29 11:39:35;;;;;;;28.52;19.95;;;24.40;99.90;;;;;;5055171;28;20045;-71
2023/06/29 11:42:07;;;;;;;27.83;20.08;;;24.40;99.90;;;;;;5053847;28;20098;-71
2023/06/29 11:44:33;;;;;;;30.50;21.40;;;24.70;99.90;;;;;;5054988;28;20049;-71
2023/06/29 11:46:59;;;;;;;27.23;18.92;;;24.70;99.90;;;;;;5055205;28;20413;-71
2023/06/29 11:49:25;;;;;;;20.63;17.00;;;24.50;99.90;;;;;;5054714;28;20517;-71
2023/06/29 11:51:51;;;;;;;25.85;17.25;;;24.50;99.90;;;;;;5054681;28;20060;-71
2023/06/29 11:54:17;;;;;;;24.15;18.70;;;24.40;99.90;;;;;;5053419;28;20049;-71
2023/06/29 11:56:43;;;;;;;25.00;18.15;;;24.40;99.90;;;;;;5054532;28;20091;-72
2023/06/29 11:59:12;;;;;;;27.88;18.73;;;24.40;99.90;;;;;;5054406;28;20475;-71
2023/06/29 12:01:38;;;;;;;23.02;17.20;;;24.30;99.90;;;;;;5055111;28;20109;-71
2023/06/29 12:04:05;;;;;;;25.67;18.23;;;24.40;99.90;;;;;;5054373;28;20098;-71
2023/06/29 12:06:32;;;;;;;26.13;19.95;;;24.50;99.90;;;;;;5054415;28;20049;-71
2023/06/29 12:08:58;;;;;;;27.85;19.27;;;24.40;99.90;;;;;;5053919;28;20475;-71
2023/06/29 12:11:26;;;;;;;28.10;20.17;;;24.30;99.90;;;;;;5054333;28;20052;-72
2023/06/29 12:13:53;;;;;;;26.60;20.15;;;24.30;99.90;;;;;;5054249;28;20052;-71
2023/06/29 12:16:22;;;;;;;27.00;19.75;;;24.40;99.90;;;;;;5054527;28;20442;-71
2023/06/29 12:18:48;;;;;;;28.75;21.15;;;24.60;99.90;;;;;;5053333;28;20053;-71
2023/06/29 12:21:21;;;;;;;29.90;21.80;;;24.60;99.90;;;;;;5053588;28;20044;-71
2023/06/29 12:23:47;;;;;;;30.92;21.42;;;24.60;99.90;;;;;;5054012;28;20051;-71
2023/06/29 12:26:14;;;;;;;29.13;21.08;;;24.80;99.90;;;;;;5053614;28;20120;-70